sensor_id;sensor_type;location;lat;lon;timestamp;temperature;humidity
13409;DHT22;6775;49.574;11.170;2023-07-31T00:00:05;15.10;99.90
13409;DHT22;6775;49.574;11.170;2023-07-31T00:02:36;15.10;99.90
13409;DHT22;6775;49.574;11.170;2023-07-31T00:05:05;15.00;99.90
13409;DHT22;6775;49.574;11.170;2023-07-31T00:07:33;15.00;99.90
13409;DHT22;6775;49.574;11.170;2023-07-31T00:10:01;14.90;99.90
13409;DHT22;6775;49.574;11.170;2023-07-31T00:12:30;14.80;99.90
13409;DHT22;6775;49.574;11.170;2023-07-31T00:14:58;14.70;99.90
13409;DHT22;6775;49.574;11.170;2023-07-31T00:17:26;14.70;99.90
13409;DHT22;6775;49.574;11.170;2023-07-31T00:19:55;14.70;99.90
13409;DHT22;6775;49.574;11.170;2023-07-31T00:22:23;14.60;99.90
13409;DHT22;6775;49.574;11.170;2023-07-31T00:24:51;14.60;99.90
13409;DHT22;6775;49.574;11.170;2023-07-31T00:27:19;14.50;99.90
13409;DHT22;6775;49.574;11.170;2023-07-31T00:29:47;14.50;99.90
13409;DHT22;6775;49.574;11.170;2023-07-31T00:32:15;14.40;99.90
13409;DHT22;6775;49.574;11.170;2023-07-31T00:34:43;14.40;99.90
13409;DHT22;6775;49.574;11.170;2023-07-31T00:37:13;14.40;99.90
13409;DHT22;6775;49.574;11.170;2023-07-31T00:39:41;14.40;99.90
13409;DHT22;6775;49.574;11.170;2023-07-31T00:42:09;14.40;99.90
13409;DHT22;6775;49.574;11.170;2023-07-31T00:44:37;14.40;99.90
13409;DHT22;6775;49.574;11.170;2023-07-31T00:47:05;14.50;99.90
13409;DHT22;6775;49.574;11.170;2023-07-31T00:49:34;14.60;99.90
13409;DHT22;6775;49.574;11.170;2023-07-31T00:52:02;14.60;99.90
13409;DHT22;6775;49.574;11.170;2023-07-31T00:54:32;14.60;99.90
13409;DHT22;6775;49.574;11.170;2023-07-31T00:57:02;14.60;99.90
13409;DHT22;6775;49.574;11.170;2023-07-31T00:59:31;14.60;99.90
13409;DHT22;6775;49.574;11.170;2023-07-31T01:01:59;14.60;99.90
13409;DHT22;6775;49.574;11.170;2023-07-31T01:04:27;14.70;99.90
13409;DHT22;6775;49.574;11.170;2023-07-31T01:07:01;14.70;99.90
13409;DHT22;6775;49.574;11.170;2023-07-31T01:09:44;14.70;99.90
13409;DHT22;6775;49.574;11.170;2023-07-31T01:12:16;14.80;99.90
13409;DHT22;6775;49.574;11.170;2023-07-31T01:14:51;14.80;99.90
13409;DHT22;6775;49.574;11.170;2023-07-31T01:17:29;14.80;99.90
13409;DHT22;6775;49.574;11.170;2023-07-31T01:20:01;14.90;99.90
13409;DHT22;6775;49.574;11.170;2023-07-31T01:22:46;15.00;99.90
13409;DHT22;6775;49.574;11.170;2023-07-31T01:25:47;14.90;99.90
13409;DHT22;6775;49.574;11.170;2023-07-31T01:28:23;14.90;99.90
13409;DHT22;6775;49.574;11.170;2023-07-31T01:31:00;14.90;99.90
13409;DHT22;6775;49.574;11.170;2023-07-31T01:33:34;15.00;99.90
13409;DHT22;6775;49.574;11.170;2023-07-31T01:36:03;14.90;99.90
13409;DHT22;6775;49.574;11.170;2023-07-31T01:38:31;14.90;99.90
13409;DHT22;6775;49.574;11.170;2023-07-31T01:41:01;14.90;99.90
13409;DHT22;6775;49.574;11.170;2023-07-31T01:43:29;15.00;99.90
13409;DHT22;6775;49.574;11.170;2023-07-31T01:45:57;15.00;99.90
13409;DHT22;6775;49.574;11.170;2023-07-31T01:48:25;15.00;99.90
13409;DHT22;6775;49.574;11.170;2023-07-31T01:50:53;15.00;99.90
13409;DHT22;6775;49.574;11.170;2023-07-31T01:53:21;15.00;99.90
13409;DHT22;6775;49.574;11.170;2023-07-31T01:55:49;15.00;99.90
13409;DHT22;6775;49.574;11.170;2023-07-31T01:58:19;15.00;99.90
13409;DHT22;6775;49.574;11.170;2023-07-31T02:00:47;15.10;99.90
13409;DHT22;6775;49.574;11.170;2023-07-31T02:03:15;15.10;99.90
13409;DHT22;6775;49.574;11.170;2023-07-31T02:05:46;15.10;99.90
13409;DHT22;6775;49.574;11.170;2023-07-31T02:08:15;15.10;99.90
13409;DHT22;6775;49.574;11.170;2023-07-31T02:10:43;15.20;99.90
13409;DHT22;6775;49.574;11.170;2023-07-31T02:13:11;15.10;99.90
13409;DHT22;6775;49.574;11.170;2023-07-31T02:15:41;15.20;99.90
13409;DHT22;6775;49.574;11.170;2023-07-31T02:18:09;15.20;99.90
13409;DHT22;6775;49.574;11.170;2023-07-31T02:20:37;15.20;99.90
13409;DHT22;6775;49.574;11.170;2023-07-31T02:23:04;15.10;99.90
13409;DHT22;6775;49.574;11.170;2023-07-31T02:25:32;15.20;99.90
13409;DHT22;6775;49.574;11.170;2023-07-31T02:28:00;15.30;99.90
13409;DHT22;6775;49.574;11.170;2023-07-31T02:30:29;15.40;99.90
13409;DHT22;6775;49.574;11.170;2023-07-31T02:32:58;15.40;99.90
13409;DHT22;6775;49.574;11.170;2023-07-31T02:35:26;15.50;99.90
13409;DHT22;6775;49.574;11.170;2023-07-31T02:37:54;15.60;99.90
13409;DHT22;6775;49.574;11.170;2023-07-31T02:40:22;15.80;99.90
13409;DHT22;6775;49.574;11.170;2023-07-31T02:42:50;15.80;99.90
13409;DHT22;6775;49.574;11.170;2023-07-31T02:45:18;15.90;99.90
13409;DHT22;6775;49.574;11.170;2023-07-31T02:47:46;15.90;99.90
13409;DHT22;6775;49.574;11.170;2023-07-31T02:50:16;16.00;99.90
13409;DHT22;6775;49.574;11.170;2023-07-31T02:52:44;16.00;99.90
13409;DHT22;6775;49.574;11.170;2023-07-31T02:55:12;16.10;99.90
13409;DHT22;6775;49.574;11.170;2023-07-31T02:57:40;16.10;99.90
13409;DHT22;6775;49.574;11.170;2023-07-31T03:00:08;16.20;99.90
13409;DHT22;6775;49.574;11.170;2023-07-31T03:02:36;16.20;99.90
13409;DHT22;6775;49.574;11.170;2023-07-31T03:05:05;16.30;99.90
13409;DHT22;6775;49.574;11.170;2023-07-31T03:07:34;16.30;99.90
13409;DHT22;6775;49.574;11.170;2023-07-31T03:10:03;16.30;99.90
13409;DHT22;6775;49.574;11.170;2023-07-31T03:12:31;16.30;99.90
13409;DHT22;6775;49.574;11.170;2023-07-31T03:14:59;16.30;99.90
13409;DHT22;6775;49.574;11.170;2023-07-31T03:17:27;16.30;99.90
13409;DHT22;6775;49.574;11.170;2023-07-31T03:19:55;16.30;99.90
13409;DHT22;6775;49.574;11.170;2023-07-31T03:22:23;16.30;99.90
13409;DHT22;6775;49.574;11.170;2023-07-31T03:24:53;16.30;99.90
13409;DHT22;6775;49.574;11.170;2023-07-31T03:27:21;16.30;99.90
13409;DHT22;6775;49.574;11.170;2023-07-31T03:29:49;16.30;99.90
13409;DHT22;6775;49.574;11.170;2023-07-31T03:32:18;16.20;99.90
13409;DHT22;6775;49.574;11.170;2023-07-31T03:34:46;16.30;99.90
13409;DHT22;6775;49.574;11.170;2023-07-31T03:37:14;16.30;99.90
13409;DHT22;6775;49.574;11.170;2023-07-31T03:39:42;16.20;99.90
13409;DHT22;6775;49.574;11.170;2023-07-31T03:42:12;16.30;99.90
13409;DHT22;6775;49.574;11.170;2023-07-31T03:44:40;16.30;99.90
13409;DHT22;6775;49.574;11.170;2023-07-31T03:47:08;16.20;99.90
13409;DHT22;6775;49.574;11.170;2023-07-31T03:49:36;16.20;99.90
13409;DHT22;6775;49.574;11.170;2023-07-31T03:52:05;16.20;99.90
13409;DHT22;6775;49.574;11.170;2023-07-31T03:54:33;16.20;99.90
13409;DHT22;6775;49.574;11.170;2023-07-31T03:57:01;16.10;99.90
13409;DHT22;6775;49.574;11.170;2023-07-31T03:59:31;16.20;99.90
13409;DHT22;6775;49.574;11.170;2023-07-31T04:01:59;16.20;99.90
13409;DHT22;6775;49.574;11.170;2023-07-31T04:04:27;16.10;99.90
13409;DHT22;6775;49.574;11.170;2023-07-31T04:06:55;16.20;99.90
13409;DHT22;6775;49.574;11.170;2023-07-31T04:09:23;16.20;99.90
13409;DHT22;6775;49.574;11.170;2023-07-31T04:11:51;16.10;99.90
13409;DHT22;6775;49.574;11.170;2023-07-31T04:14:19;16.10;99.90
13409;DHT22;6775;49.574;11.170;2023-07-31T04:16:50;16.10;99.90
13409;DHT22;6775;49.574;11.170;2023-07-31T04:19:19;16.10;99.90
13409;DHT22;6775;49.574;11.170;2023-07-31T04:21:47;16.10;99.90
13409;DHT22;6775;49.574;11.170;2023-07-31T04:24:15;16.00;99.90
13409;DHT22;6775;49.574;11.170;2023-07-31T04:26:48;16.10;99.90
13409;DHT22;6775;49.574;11.170;2023-07-31T04:29:16;16.10;99.90
13409;DHT22;6775;49.574;11.170;2023-07-31T04:31:44;16.10;99.90
13409;DHT22;6775;49.574;11.170;2023-07-31T04:34:14;16.20;99.90
13409;DHT22;6775;49.574;11.170;2023-07-31T04:36:42;16.20;99.90
13409;DHT22;6775;49.574;11.170;2023-07-31T04:39:10;16.20;99.90
13409;DHT22;6775;49.574;11.170;2023-07-31T04:41:38;16.20;99.90
13409;DHT22;6775;49.574;11.170;2023-07-31T04:44:06;16.20;99.90
13409;DHT22;6775;49.574;11.170;2023-07-31T04:46:34;16.20;99.90
13409;DHT22;6775;49.574;11.170;2023-07-31T04:49:02;16.30;99.90
13409;DHT22;6775;49.574;11.170;2023-07-31T04:51:32;16.30;99.90
13409;DHT22;6775;49.574;11.170;2023-07-31T04:53:59;16.30;99.90
13409;DHT22;6775;49.574;11.170;2023-07-31T04:56:28;16.30;99.90
13409;DHT22;6775;49.574;11.170;2023-07-31T04:58:56;16.30;99.90
13409;DHT22;6775;49.574;11.170;2023-07-31T05:01:23;16.40;99.90
13409;DHT22;6775;49.574;11.170;2023-07-31T05:03:52;16.40;99.90
13409;DHT22;6775;49.574;11.170;2023-07-31T05:06:20;16.40;99.90
13409;DHT22;6775;49.574;11.170;2023-07-31T05:08:49;16.50;99.90
13409;DHT22;6775;49.574;11.170;2023-07-31T05:11:17;16.50;99.90
13409;DHT22;6775;49.574;11.170;2023-07-31T05:13:45;16.40;99.90
13409;DHT22;6775;49.574;11.170;2023-07-31T05:16:13;16.50;99.90
13409;DHT22;6775;49.574;11.170;2023-07-31T05:18:41;16.40;99.90
13409;DHT22;6775;49.574;11.170;2023-07-31T05:21:09;16.50;99.90
13409;DHT22;6775;49.574;11.170;2023-07-31T05:23:37;16.50;99.90
13409;DHT22;6775;49.574;11.170;2023-07-31T05:26:07;16.60;99.90
13409;DHT22;6775;49.574;11.170;2023-07-31T05:28:36;16.60;99.90
13409;DHT22;6775;49.574;11.170;2023-07-31T05:31:05;16.60;99.90
13409;DHT22;6775;49.574;11.170;2023-07-31T05:33:33;16.60;99.90
13409;DHT22;6775;49.574;11.170;2023-07-31T05:36:01;16.70;99.90
13409;DHT22;6775;49.574;11.170;2023-07-31T05:38:30;16.70;99.90
13409;DHT22;6775;49.574;11.170;2023-07-31T05:40:58;16.70;99.90
13409;DHT22;6775;49.574;11.170;2023-07-31T05:43:27;16.80;99.90
13409;DHT22;6775;49.574;11.170;2023-07-31T05:45:55;16.80;99.90
13409;DHT22;6775;49.574;11.170;2023-07-31T05:48:23;16.80;99.90
13409;DHT22;6775;49.574;11.170;2023-07-31T05:50:51;16.90;99.90
13409;DHT22;6775;49.574;11.170;2023-07-31T05:53:19;16.90;99.90
13409;DHT22;6775;49.574;11.170;2023-07-31T05:55:47;17.00;99.90
13409;DHT22;6775;49.574;11.170;2023-07-31T05:58:15;17.00;99.90
13409;DHT22;6775;49.574;11.170;2023-07-31T06:00:45;17.00;99.90
13409;DHT22;6775;49.574;11.170;2023-07-31T06:03:13;17.00;99.90
13409;DHT22;6775;49.574;11.170;2023-07-31T06:05:41;17.10;99.90
13409;DHT22;6775;49.574;11.170;2023-07-31T06:08:09;17.10;99.90
13409;DHT22;6775;49.574;11.170;2023-07-31T06:10:37;17.10;99.90
13409;DHT22;6775;49.574;11.170;2023-07-31T06:13:05;17.20;99.90
13409;DHT22;6775;49.574;11.170;2023-07-31T06:15:33;17.10;99.90
13409;DHT22;6775;49.574;11.170;2023-07-31T06:18:02;17.20;99.90
13409;DHT22;6775;49.574;11.170;2023-07-31T06:20:34;17.20;99.90
13409;DHT22;6775;49.574;11.170;2023-07-31T06:23:02;17.10;99.90
13409;DHT22;6775;49.574;11.170;2023-07-31T06:25:30;17.10;99.90
13409;DHT22;6775;49.574;11.170;2023-07-31T06:27:58;17.10;99.90
13409;DHT22;6775;49.574;11.170;2023-07-31T06:30:26;17.10;99.90
13409;DHT22;6775;49.574;11.170;2023-07-31T06:32:54;17.20;99.90
13409;DHT22;6775;49.574;11.170;2023-07-31T06:35:24;17.20;99.90
13409;DHT22;6775;49.574;11.170;2023-07-31T06:37:52;17.20;99.90
13409;DHT22;6775;49.574;11.170;2023-07-31T06:40:20;17.20;99.90
13409;DHT22;6775;49.574;11.170;2023-07-31T06:42:49;17.20;99.90
13409;DHT22;6775;49.574;11.170;2023-07-31T06:45:17;17.30;99.90
13409;DHT22;6775;49.574;11.170;2023-07-31T06:47:45;17.30;99.90
13409;DHT22;6775;49.574;11.170;2023-07-31T06:50:13;17.30;99.90
13409;DHT22;6775;49.574;11.170;2023-07-31T06:52:43;17.40;99.90
13409;DHT22;6775;49.574;11.170;2023-07-31T06:55:21;17.50;99.90
13409;DHT22;6775;49.574;11.170;2023-07-31T06:57:51;17.60;99.90
13409;DHT22;6775;49.574;11.170;2023-07-31T07:00:22;17.60;99.90
13409;DHT22;6775;49.574;11.170;2023-07-31T07:02:50;17.70;99.90
13409;DHT22;6775;49.574;11.170;2023-07-31T07:05:19;17.80;99.90
13409;DHT22;6775;49.574;11.170;2023-07-31T07:07:49;17.90;99.90
13409;DHT22;6775;49.574;11.170;2023-07-31T07:10:18;17.90;99.90
13409;DHT22;6775;49.574;11.170;2023-07-31T07:12:46;18.00;99.90
13409;DHT22;6775;49.574;11.170;2023-07-31T07:15:14;18.00;99.90
13409;DHT22;6775;49.574;11.170;2023-07-31T07:17:42;18.10;99.90
13409;DHT22;6775;49.574;11.170;2023-07-31T07:20:10;18.20;99.90
13409;DHT22;6775;49.574;11.170;2023-07-31T07:22:38;18.20;99.90
13409;DHT22;6775;49.574;11.170;2023-07-31T07:25:11;18.20;99.90
13409;DHT22;6775;49.574;11.170;2023-07-31T07:27:39;18.30;99.90
13409;DHT22;6775;49.574;11.170;2023-07-31T07:30:07;18.40;99.90
13409;DHT22;6775;49.574;11.170;2023-07-31T07:32:35;18.40;99.90
13409;DHT22;6775;49.574;11.170;2023-07-31T07:35:04;18.50;99.90
13409;DHT22;6775;49.574;11.170;2023-07-31T07:37:33;18.50;99.90
13409;DHT22;6775;49.574;11.170;2023-07-31T07:40:01;18.50;99.90
13409;DHT22;6775;49.574;11.170;2023-07-31T07:42:31;18.50;99.90
13409;DHT22;6775;49.574;11.170;2023-07-31T07:44:59;18.50;99.90
13409;DHT22;6775;49.574;11.170;2023-07-31T07:47:27;18.50;99.90
13409;DHT22;6775;49.574;11.170;2023-07-31T07:49:55;18.50;99.90
13409;DHT22;6775;49.574;11.170;2023-07-31T07:52:23;18.50;99.90
13409;DHT22;6775;49.574;11.170;2023-07-31T07:54:51;18.50;99.90
13409;DHT22;6775;49.574;11.170;2023-07-31T07:57:19;18.50;99.90
13409;DHT22;6775;49.574;11.170;2023-07-31T07:59:48;18.50;99.90
13409;DHT22;6775;49.574;11.170;2023-07-31T08:02:16;18.50;99.90
13409;DHT22;6775;49.574;11.170;2023-07-31T08:04:44;18.60;99.90
13409;DHT22;6775;49.574;11.170;2023-07-31T08:07:12;18.60;99.90
13409;DHT22;6775;49.574;11.170;2023-07-31T08:09:41;18.60;99.90
13409;DHT22;6775;49.574;11.170;2023-07-31T08:12:09;18.70;99.90
13409;DHT22;6775;49.574;11.170;2023-07-31T08:14:37;18.80;99.90
13409;DHT22;6775;49.574;11.170;2023-07-31T08:17:06;18.90;99.90
13409;DHT22;6775;49.574;11.170;2023-07-31T08:19:35;19.00;99.90
13409;DHT22;6775;49.574;11.170;2023-07-31T08:22:03;19.10;99.90
13409;DHT22;6775;49.574;11.170;2023-07-31T08:24:31;19.30;99.90
13409;DHT22;6775;49.574;11.170;2023-07-31T08:26:59;19.50;99.90
13409;DHT22;6775;49.574;11.170;2023-07-31T08:29:27;19.70;99.90
13409;DHT22;6775;49.574;11.170;2023-07-31T08:31:56;19.90;99.90
13409;DHT22;6775;49.574;11.170;2023-07-31T08:34:25;20.00;99.90
13409;DHT22;6775;49.574;11.170;2023-07-31T08:36:53;20.10;99.90
13409;DHT22;6775;49.574;11.170;2023-07-31T08:39:21;20.30;99.90
13409;DHT22;6775;49.574;11.170;2023-07-31T08:41:49;20.40;99.90
13409;DHT22;6775;49.574;11.170;2023-07-31T08:44:18;20.50;99.90
13409;DHT22;6775;49.574;11.170;2023-07-31T08:46:47;20.60;99.90
13409;DHT22;6775;49.574;11.170;2023-07-31T08:49:17;20.80;99.90
13409;DHT22;6775;49.574;11.170;2023-07-31T08:51:50;21.00;99.90
13409;DHT22;6775;49.574;11.170;2023-07-31T08:54:20;21.30;99.90
13409;DHT22;6775;49.574;11.170;2023-07-31T08:56:48;21.60;99.90
13409;DHT22;6775;49.574;11.170;2023-07-31T08:59:18;21.70;99.90
13409;DHT22;6775;49.574;11.170;2023-07-31T09:01:50;21.80;99.90
13409;DHT22;6775;49.574;11.170;2023-07-31T09:04:23;22.10;99.90
13409;DHT22;6775;49.574;11.170;2023-07-31T09:06:59;22.20;99.90
13409;DHT22;6775;49.574;11.170;2023-07-31T09:09:28;22.30;99.90
13409;DHT22;6775;49.574;11.170;2023-07-31T09:11:57;22.50;99.90
13409;DHT22;6775;49.574;11.170;2023-07-31T09:14:26;22.40;99.90
13409;DHT22;6775;49.574;11.170;2023-07-31T09:16:55;22.20;99.90
13409;DHT22;6775;49.574;11.170;2023-07-31T09:19:25;22.10;99.90
13409;DHT22;6775;49.574;11.170;2023-07-31T09:21:56;22.30;99.90
13409;DHT22;6775;49.574;11.170;2023-07-31T09:24:27;22.50;99.90
13409;DHT22;6775;49.574;11.170;2023-07-31T09:26:58;22.70;99.90
13409;DHT22;6775;49.574;11.170;2023-07-31T09:29:28;22.70;99.90
13409;DHT22;6775;49.574;11.170;2023-07-31T09:31:57;22.80;99.90
13409;DHT22;6775;49.574;11.170;2023-07-31T09:34:30;22.80;99.90
13409;DHT22;6775;49.574;11.170;2023-07-31T09:37:05;22.60;99.90
13409;DHT22;6775;49.574;11.170;2023-07-31T09:39:45;22.40;99.90
13409;DHT22;6775;49.574;11.170;2023-07-31T09:42:24;22.50;99.90
13409;DHT22;6775;49.574;11.170;2023-07-31T09:44:53;22.70;99.90
13409;DHT22;6775;49.574;11.170;2023-07-31T09:47:25;22.80;99.90
13409;DHT22;6775;49.574;11.170;2023-07-31T09:49:53;22.90;99.90
13409;DHT22;6775;49.574;11.170;2023-07-31T09:52:26;22.80;99.90
13409;DHT22;6775;49.574;11.170;2023-07-31T09:54:54;22.80;99.90
13409;DHT22;6775;49.574;11.170;2023-07-31T09:57:23;22.80;99.90
13409;DHT22;6775;49.574;11.170;2023-07-31T09:59:52;22.80;99.90
13409;DHT22;6775;49.574;11.170;2023-07-31T10:02:22;22.80;99.90
13409;DHT22;6775;49.574;11.170;2023-07-31T10:04:51;22.80;99.90
13409;DHT22;6775;49.574;11.170;2023-07-31T10:07:25;22.50;99.90
13409;DHT22;6775;49.574;11.170;2023-07-31T10:09:54;22.20;99.90
13409;DHT22;6775;49.574;11.170;2023-07-31T10:12:27;22.20;99.90
13409;DHT22;6775;49.574;11.170;2023-07-31T10:14:56;22.30;99.90
13409;DHT22;6775;49.574;11.170;2023-07-31T10:17:25;22.40;99.90
13409;DHT22;6775;49.574;11.170;2023-07-31T10:19:54;22.60;99.90
13409;DHT22;6775;49.574;11.170;2023-07-31T10:22:27;22.60;99.90
13409;DHT22;6775;49.574;11.170;2023-07-31T10:24:58;22.50;99.90
13409;DHT22;6775;49.574;11.170;2023-07-31T10:27:27;22.40;99.90
13409;DHT22;6775;49.574;11.170;2023-07-31T10:29:56;22.20;99.90
13409;DHT22;6775;49.574;11.170;2023-07-31T10:32:26;22.20;99.90
13409;DHT22;6775;49.574;11.170;2023-07-31T10:34:56;22.00;99.90
13409;DHT22;6775;49.574;11.170;2023-07-31T10:37:28;22.10;99.90
13409;DHT22;6775;49.574;11.170;2023-07-31T10:39:59;22.20;99.90
13409;DHT22;6775;49.574;11.170;2023-07-31T10:42:32;22.50;99.90
13409;DHT22;6775;49.574;11.170;2023-07-31T10:45:04;22.80;99.90
13409;DHT22;6775;49.574;11.170;2023-07-31T10:47:37;23.20;99.90
13409;DHT22;6775;49.574;11.170;2023-07-31T10:50:21;23.70;99.90
13409;DHT22;6775;49.574;11.170;2023-07-31T10:52:53;24.10;99.90
13409;DHT22;6775;49.574;11.170;2023-07-31T10:55:27;24.40;99.90
13409;DHT22;6775;49.574;11.170;2023-07-31T10:57:58;24.60;99.80
13409;DHT22;6775;49.574;11.170;2023-07-31T11:00:33;24.40;98.70
13409;DHT22;6775;49.574;11.170;2023-07-31T11:03:06;24.10;99.30
13409;DHT22;6775;49.574;11.170;2023-07-31T11:05:47;23.90;98.60
13409;DHT22;6775;49.574;11.170;2023-07-31T11:08:20;23.50;99.60
13409;DHT22;6775;49.574;11.170;2023-07-31T11:10:51;23.30;99.90
13409;DHT22;6775;49.574;11.170;2023-07-31T11:13:39;23.10;99.50
13409;DHT22;6775;49.574;11.170;2023-07-31T11:16:08;22.90;99.90
13409;DHT22;6775;49.574;11.170;2023-07-31T11:18:39;22.80;99.90
13409;DHT22;6775;49.574;11.170;2023-07-31T11:21:11;22.60;99.90
13409;DHT22;6775;49.574;11.170;2023-07-31T11:23:41;22.40;99.90
13409;DHT22;6775;49.574;11.170;2023-07-31T11:26:14;22.20;99.90
13409;DHT22;6775;49.574;11.170;2023-07-31T11:28:43;22.00;99.90
13409;DHT22;6775;49.574;11.170;2023-07-31T11:31:11;21.90;99.90
13409;DHT22;6775;49.574;11.170;2023-07-31T11:33:39;21.70;99.90
13409;DHT22;6775;49.574;11.170;2023-07-31T11:36:14;21.70;99.90
13409;DHT22;6775;49.574;11.170;2023-07-31T11:38:44;21.60;99.90
13409;DHT22;6775;49.574;11.170;2023-07-31T11:41:14;21.60;99.90
13409;DHT22;6775;49.574;11.170;2023-07-31T11:43:45;21.50;99.90
13409;DHT22;6775;49.574;11.170;2023-07-31T11:46:14;21.50;99.90
13409;DHT22;6775;49.574;11.170;2023-07-31T11:48:43;21.50;99.90
13409;DHT22;6775;49.574;11.170;2023-07-31T11:51:13;21.50;99.90
13409;DHT22;6775;49.574;11.170;2023-07-31T11:53:45;21.40;99.90
13409;DHT22;6775;49.574;11.170;2023-07-31T11:56:18;21.40;99.90
13409;DHT22;6775;49.574;11.170;2023-07-31T11:58:51;21.40;99.90
13409;DHT22;6775;49.574;11.170;2023-07-31T12:01:23;21.50;99.90
13409;DHT22;6775;49.574;11.170;2023-07-31T12:03:52;21.50;99.90
13409;DHT22;6775;49.574;11.170;2023-07-31T12:06:21;21.60;99.90
13409;DHT22;6775;49.574;11.170;2023-07-31T12:08:50;21.70;99.90
13409;DHT22;6775;49.574;11.170;2023-07-31T12:11:18;21.70;99.90
13409;DHT22;6775;49.574;11.170;2023-07-31T12:13:46;21.70;99.90
13409;DHT22;6775;49.574;11.170;2023-07-31T12:16:14;21.70;99.90
13409;DHT22;6775;49.574;11.170;2023-07-31T12:18:42;21.70;99.90
13409;DHT22;6775;49.574;11.170;2023-07-31T12:21:11;21.80;99.90
13409;DHT22;6775;49.574;11.170;2023-07-31T12:23:39;21.80;99.90
13409;DHT22;6775;49.574;11.170;2023-07-31T12:26:11;21.90;99.90
13409;DHT22;6775;49.574;11.170;2023-07-31T12:28:41;21.90;99.90
13409;DHT22;6775;49.574;11.170;2023-07-31T12:31:12;22.00;99.90
13409;DHT22;6775;49.574;11.170;2023-07-31T12:33:41;22.00;99.90
13409;DHT22;6775;49.574;11.170;2023-07-31T12:36:11;22.00;99.90
13409;DHT22;6775;49.574;11.170;2023-07-31T12:38:40;22.00;99.90
13409;DHT22;6775;49.574;11.170;2023-07-31T12:41:11;22.00;99.90
13409;DHT22;6775;49.574;11.170;2023-07-31T12:43:41;22.00;99.90
13409;DHT22;6775;49.574;11.170;2023-07-31T12:46:12;22.00;99.90
13409;DHT22;6775;49.574;11.170;2023-07-31T12:48:41;22.00;99.90
13409;DHT22;6775;49.574;11.170;2023-07-31T12:51:09;22.00;99.90
13409;DHT22;6775;49.574;11.170;2023-07-31T12:53:37;21.90;99.90
13409;DHT22;6775;49.574;11.170;2023-07-31T12:56:05;21.80;99.90
13409;DHT22;6775;49.574;11.170;2023-07-31T12:58:34;21.90;99.90
13409;DHT22;6775;49.574;11.170;2023-07-31T13:01:02;22.00;99.90
13409;DHT22;6775;49.574;11.170;2023-07-31T13:03:30;22.20;99.90
13409;DHT22;6775;49.574;11.170;2023-07-31T13:05:59;22.30;99.90
13409;DHT22;6775;49.574;11.170;2023-07-31T13:08:27;22.50;99.90
13409;DHT22;6775;49.574;11.170;2023-07-31T13:10:55;22.70;99.90
13409;DHT22;6775;49.574;11.170;2023-07-31T13:13:23;22.80;99.90
13409;DHT22;6775;49.574;11.170;2023-07-31T13:15:52;23.00;99.90
13409;DHT22;6775;49.574;11.170;2023-07-31T13:18:20;23.20;99.90
13409;DHT22;6775;49.574;11.170;2023-07-31T13:20:48;23.30;99.90
13409;DHT22;6775;49.574;11.170;2023-07-31T13:23:16;23.40;99.90
13409;DHT22;6775;49.574;11.170;2023-07-31T13:25:45;23.40;99.90
13409;DHT22;6775;49.574;11.170;2023-07-31T13:28:13;23.30;99.10
13409;DHT22;6775;49.574;11.170;2023-07-31T13:30:41;23.20;99.90
13409;DHT22;6775;49.574;11.170;2023-07-31T13:33:10;23.10;99.80
13409;DHT22;6775;49.574;11.170;2023-07-31T13:35:58;23.10;99.80
13409;DHT22;6775;49.574;11.170;2023-07-31T13:38:26;23.10;99.90
13409;DHT22;6775;49.574;11.170;2023-07-31T13:40:54;23.10;99.90
13409;DHT22;6775;49.574;11.170;2023-07-31T13:43:23;23.10;99.90
13409;DHT22;6775;49.574;11.170;2023-07-31T13:45:51;23.10;99.90
13409;DHT22;6775;49.574;11.170;2023-07-31T13:48:20;23.00;99.10
13409;DHT22;6775;49.574;11.170;2023-07-31T13:50:48;22.90;99.40
13409;DHT22;6775;49.574;11.170;2023-07-31T13:53:16;22.80;99.00
13409;DHT22;6775;49.574;11.170;2023-07-31T13:55:44;22.70;99.40
13409;DHT22;6775;49.574;11.170;2023-07-31T13:58:12;22.50;98.80
13409;DHT22;6775;49.574;11.170;2023-07-31T14:00:40;22.50;99.70
13409;DHT22;6775;49.574;11.170;2023-07-31T14:03:08;22.60;99.70
13409;DHT22;6775;49.574;11.170;2023-07-31T14:05:38;22.70;99.70
13409;DHT22;6775;49.574;11.170;2023-07-31T14:08:06;22.80;99.80
13409;DHT22;6775;49.574;11.170;2023-07-31T14:10:34;22.90;99.40
13409;DHT22;6775;49.574;11.170;2023-07-31T14:13:02;23.10;98.90
13409;DHT22;6775;49.574;11.170;2023-07-31T14:15:30;23.20;99.30
13409;DHT22;6775;49.574;11.170;2023-07-31T14:17:59;23.50;98.80
13409;DHT22;6775;49.574;11.170;2023-07-31T14:20:28;23.50;98.20
13409;DHT22;6775;49.574;11.170;2023-07-31T14:22:58;23.50;98.30
13409;DHT22;6775;49.574;11.170;2023-07-31T14:25:27;23.40;97.60
13409;DHT22;6775;49.574;11.170;2023-07-31T14:27:55;23.30;98.00
13409;DHT22;6775;49.574;11.170;2023-07-31T14:30:23;23.10;97.50
13409;DHT22;6775;49.574;11.170;2023-07-31T14:32:51;23.10;98.10
13409;DHT22;6775;49.574;11.170;2023-07-31T14:35:19;22.90;97.90
13409;DHT22;6775;49.574;11.170;2023-07-31T14:37:47;22.70;98.30
13409;DHT22;6775;49.574;11.170;2023-07-31T14:40:16;22.60;98.90
13409;DHT22;6775;49.574;11.170;2023-07-31T14:42:44;22.50;98.60
13409;DHT22;6775;49.574;11.170;2023-07-31T14:45:12;22.50;99.50
13409;DHT22;6775;49.574;11.170;2023-07-31T14:47:40;22.40;99.90
13409;DHT22;6775;49.574;11.170;2023-07-31T14:50:09;22.30;99.90
13409;DHT22;6775;49.574;11.170;2023-07-31T14:52:38;22.30;99.90
13409;DHT22;6775;49.574;11.170;2023-07-31T14:55:06;22.20;99.90
13409;DHT22;6775;49.574;11.170;2023-07-31T14:57:37;22.20;99.90
13409;DHT22;6775;49.574;11.170;2023-07-31T15:00:06;22.20;99.90
13409;DHT22;6775;49.574;11.170;2023-07-31T15:02:37;22.10;99.90
13409;DHT22;6775;49.574;11.170;2023-07-31T15:05:06;22.20;99.90
13409;DHT22;6775;49.574;11.170;2023-07-31T15:07:34;22.10;99.90
13409;DHT22;6775;49.574;11.170;2023-07-31T15:10:03;22.10;99.90
13409;DHT22;6775;49.574;11.170;2023-07-31T15:12:32;22.00;99.90
13409;DHT22;6775;49.574;11.170;2023-07-31T15:15:02;22.00;99.90
13409;DHT22;6775;49.574;11.170;2023-07-31T15:17:30;22.00;99.90
13409;DHT22;6775;49.574;11.170;2023-07-31T15:19:59;22.00;99.90
13409;DHT22;6775;49.574;11.170;2023-07-31T15:22:30;21.90;99.90
13409;DHT22;6775;49.574;11.170;2023-07-31T15:24:58;21.90;99.90
13409;DHT22;6775;49.574;11.170;2023-07-31T15:27:26;21.90;99.90
13409;DHT22;6775;49.574;11.170;2023-07-31T15:29:54;21.80;99.90
13409;DHT22;6775;49.574;11.170;2023-07-31T15:32:23;21.80;99.90
13409;DHT22;6775;49.574;11.170;2023-07-31T15:34:52;21.80;99.90
13409;DHT22;6775;49.574;11.170;2023-07-31T15:37:20;21.80;99.90
13409;DHT22;6775;49.574;11.170;2023-07-31T15:39:48;21.80;99.90
13409;DHT22;6775;49.574;11.170;2023-07-31T15:42:16;21.80;99.90